Time;durP1;ratioP1;P1;durP2;ratioP2;P2;SDS_P1;SDS_P2;PMS_P1;PMS_P2;Temp;Humidity;BMP_temperature;BMP_pressure;BME280_temperature;BME280_humidity;BME280_pressure;Samples;Min_cycle;Max_cycle;Signal;HPM_P1;HPM_P2
2021/09/14 00:00:27;;;;;;;1.83;1.73;;;23.70;50.30;;;;;;5068107;28;20112;-70
2021/09/14 00:02:54;;;;;;;2.50;2.30;;;23.70;50.30;;;;;;5066878;28;20132;-70
2021/09/14 00:05:22;;;;;;;2.72;2.53;;;23.70;50.30;;;;;;5068046;28;20354;-70
2021/09/14 00:07:50;;;;;;;2.25;2.05;;;23.70;50.30;;;;;;5069875;28;20071;-70
2021/09/14 00:10:17;;;;;;;2.10;1.95;;;23.70;50.40;;;;;;5069404;28;20123;-70
2021/09/14 00:12:55;;;;;;;2.30;2.20;;;23.70;50.40;;;;;;5062158;28;20359;-71
2021/09/14 00:15:23;;;;;;;2.10;1.98;;;23.60;50.30;;;;;;5066701;28;20500;-70
2021/09/14 00:17:50;;;;;;;1.77;1.67;;;23.60;50.40;;;;;;5069615;28;20173;-70
2021/09/14 00:20:17;;;;;;;2.40;2.22;;;23.60;50.40;;;;;;5069004;28;20148;-70
2021/09/14 00:22:44;;;;;;;2.55;2.08;;;23.60;50.40;;;;;;5062556;28;20045;-69
2021/09/14 00:25:12;;;;;;;2.47;2.28;;;23.60;50.30;;;;;;5065422;28;20055;-70
2021/09/14 00:27:39;;;;;;;2.05;1.90;;;23.70;50.30;;;;;;5067691;28;20084;-70
2021/09/14 00:30:11;;;;;;;2.20;2.00;;;23.70;50.30;;;;;;5067765;28;20048;-70
2021/09/14 00:32:39;;;;;;;2.45;2.25;;;23.70;50.30;;;;;;5062507;28;20037;-70
2021/09/14 00:35:07;;;;;;;2.38;2.22;;;23.70;50.20;;;;;;5067515;28;20084;-70
2021/09/14 00:37:35;;;;;;;2.40;2.20;;;23.70;50.20;;;;;;5073825;28;20076;-69
2021/09/14 00:40:05;;;;;;;1.85;1.73;;;23.80;50.20;;;;;;5069322;28;20163;-70
2021/09/14 00:42:32;;;;;;;2.35;2.15;;;23.70;50.10;;;;;;5062470;28;20323;-70
2021/09/14 00:44:59;;;;;;;2.38;2.17;;;23.70;50.10;;;;;;5063275;28;20040;-69
2021/09/14 00:47:26;;;;;;;2.38;2.17;;;23.70;50.60;;;;;;5069245;28;20115;-70
2021/09/14 00:49:54;;;;;;;2.40;2.20;;;23.70;50.10;;;;;;5067372;28;20103;-70
2021/09/14 00:52:49;;;;;;;2.58;2.38;;;23.70;50.10;;;;;;5062701;28;20416;-68
2021/09/14 00:55:16;;;;;;;3.00;2.67;;;23.70;50.10;;;;;;5064868;28;20051;-68
2021/09/14 00:57:43;;;;;;;2.20;2.10;;;23.70;50.10;;;;;;5068364;28;20052;-70
2021/09/14 01:00:11;;;;;;;3.45;2.10;;;23.70;50.10;;;;;;5068721;28;20131;-70
2021/09/14 01:02:38;;;;;;;2.13;1.95;;;23.70;50.20;;;;;;5063764;28;20115;-70
2021/09/14 01:05:06;;;;;;;2.45;2.25;;;23.70;50.20;;;;;;5067110;28;20052;-70
2021/09/14 01:07:33;;;;;;;2.30;2.10;;;23.70;50.20;;;;;;5068310;28;20521;-70
2021/09/14 01:10:01;;;;;;;2.30;2.10;;;23.60;50.20;;;;;;5068228;28;20116;-70
2021/09/14 01:12:29;;;;;;;2.55;2.35;;;23.60;50.20;;;;;;5062361;28;20087;-70
2021/09/14 01:14:57;;;;;;;2.08;1.88;;;23.60;50.20;;;;;;5068018;28;20139;-71
2021/09/14 01:17:26;;;;;;;2.30;2.10;;;23.60;50.30;;;;;;5068272;28;20555;-70
2021/09/14 01:19:54;;;;;;;2.10;2.00;;;23.60;50.30;;;;;;5067765;28;20044;-71
2021/09/14 01:22:25;;;;;;;2.50;2.30;;;23.60;50.30;;;;;;5062079;28;20277;-70
2021/09/14 01:24:53;;;;;;;3.10;2.15;;;23.60;50.40;;;;;;5063826;28;20050;-70
2021/09/14 01:27:20;;;;;;;2.45;2.25;;;23.50;50.30;;;;;;5066502;28;20049;-69
2021/09/14 01:32:34;;;;;;;2.70;2.40;;;23.50;50.40;;;;;;5061460;28;20071;-70
2021/09/14 01:35:11;;;;;;;2.08;1.92;;;23.50;50.50;;;;;;5065965;28;20045;-70
2021/09/14 01:37:39;;;;;;;3.03;2.55;;;23.50;50.50;;;;;;5067868;28;20044;-70
2021/09/14 01:40:07;;;;;;;2.08;1.98;;;23.50;50.50;;;;;;5067505;28;20080;-70
2021/09/14 01:42:35;;;;;;;3.50;2.20;;;23.50;50.50;;;;;;5061081;28;20040;-70
2021/09/14 01:45:04;;;;;;;2.10;2.00;;;23.50;50.50;;;;;;5066975;28;20131;-70
2021/09/14 01:47:32;;;;;;;2.50;2.30;;;23.50;50.40;;;;;;5068075;28;20123;-71
2021/09/14 01:49:59;;;;;;;2.40;2.20;;;23.60;50.40;;;;;;5067731;28;20051;-71
2021/09/14 01:52:27;;;;;;;2.33;2.15;;;23.60;50.30;;;;;;5061087;28;20048;-71
2021/09/14 01:54:55;;;;;;;2.35;2.15;;;23.60;50.30;;;;;;5062040;28;20048;-70
2021/09/14 01:57:27;;;;;;;2.00;1.90;;;23.60;50.30;;;;;;5067759;28;20071;-69
2021/09/14 01:59:57;;;;;;;1.98;1.88;;;23.60;50.30;;;;;;5067852;28;20682;-70
2021/09/14 02:02:48;;;;;;;2.13;2.03;;;23.60;50.20;;;;;;5060573;28;20068;-70
2021/09/14 02:05:18;;;;;;;2.40;2.20;;;23.60;50.20;;;;;;5066888;28;20049;-71
2021/09/14 02:08:04;;;;;;;2.15;2.05;;;23.60;50.30;;;;;;5067238;28;20139;-70
2021/09/14 02:30:08;;;;;;;1.83;1.73;;;23.50;50.40;;;;;;5062112;28;20501;-71
2021/09/14 02:33:42;;;;;;;2.00;1.90;;;23.50;50.40;;;;;;5066625;28;20044;-71
2021/09/14 02:38:50;;;;;;;2.35;2.15;;;23.50;50.50;;;;;;5071839;28;20083;-72
2021/09/14 02:44:15;;;;;;;3.08;2.25;;;23.40;50.50;;;;;;5059694;28;20594;-71
2021/09/14 03:00:37;;;;;;;1.80;1.70;;;23.40;51.00;;;;;;5071446;28;20123;-70
2021/09/14 03:03:38;;;;;;;2.13;2.00;;;23.40;50.40;;;;;;5059997;28;21248;-71
2021/09/14 03:06:05;;;;;;;2.03;1.92;;;23.50;50.40;;;;;;5069575;28;20549;-71
2021/09/14 03:08:33;;;;;;;2.00;1.90;;;23.50;50.30;;;;;;5070603;28;20520;-71
2021/09/14 03:11:11;;;;;;;2.40;2.20;;;23.50;50.30;;;;;;5070881;28;20048;-71
2021/09/14 03:13:40;;;;;;;2.03;1.83;;;23.50;50.30;;;;;;5057972;28;20052;-71
2021/09/14 03:16:09;;;;;;;1.95;1.80;;;23.50;50.30;;;;;;5070502;28;20094;-71
2021/09/14 03:18:38;;;;;;;2.67;2.20;;;23.50;50.30;;;;;;5070089;28;20083;-70
2021/09/14 03:21:07;;;;;;;2.00;1.85;;;23.50;50.30;;;;;;5069213;28;20135;-71
2021/09/14 03:23:34;;;;;;;1.90;1.80;;;23.50;50.30;;;;;;5058327;28;20159;-70
2021/09/14 03:26:02;;;;;;;2.10;1.90;;;23.50;50.30;;;;;;5069945;28;20076;-71
2021/09/14 03:28:29;;;;;;;1.70;1.60;;;23.50;50.30;;;;;;5070027;28;20485;-71
2021/09/14 03:30:56;;;;;;;2.30;2.15;;;23.40;50.20;;;;;;5070193;28;20083;-71
2021/09/14 03:33:33;;;;;;;1.92;1.83;;;23.40;50.30;;;;;;5057755;28;20070;-71
2021/09/14 03:36:00;;;;;;;2.13;1.92;;;23.40;50.30;;;;;;5070025;28;20131;-71
2021/09/14 03:38:28;;;;;;;1.98;1.88;;;23.40;50.30;;;;;;5069699;28;20079;-71
2021/09/14 03:40:55;;;;;;;1.90;1.80;;;23.40;50.30;;;;;;5070191;28;20058;-71
2021/09/14 03:43:22;;;;;;;2.08;1.88;;;23.40;50.30;;;;;;5059127;28;20064;-71
2021/09/14 03:45:50;;;;;;;2.25;2.05;;;23.40;50.40;;;;;;5054532;28;20428;-71
2021/09/14 03:48:18;;;;;;;2.00;1.90;;;23.40;50.40;;;;;;5058663;28;20052;-71
2021/09/14 03:50:47;;;;;;;2.00;1.90;;;23.40;50.40;;;;;;5051629;28;20045;-71
2021/09/14 03:53:14;;;;;;;1.90;1.80;;;23.40;50.40;;;;;;5049888;28;20601;-69
2021/09/14 03:55:41;;;;;;;2.20;2.10;;;23.30;50.50;;;;;;5052445;28;20513;-71
2021/09/14 03:58:08;;;;;;;1.63;1.52;;;23.30;50.50;;;;;;5060225;28;20045;-71
2021/09/14 04:00:36;;;;;;;1.63;1.52;;;23.30;50.50;;;;;;5058750;28;20139;-71
2021/09/14 04:03:07;;;;;;;2.05;1.90;;;23.30;50.50;;;;;;5058664;28;20040;-71
2021/09/14 04:05:44;;;;;;;1.73;1.58;;;23.30;50.60;;;;;;5053211;28;20163;-71
2021/09/14 04:10:56;;;;;;;1.88;1.77;;;23.30;50.50;;;;;;5055343;28;20049;-71
2021/09/14 04:13:47;;;;;;;2.05;1.95;;;23.30;50.50;;;;;;5049700;28;20047;-71
2021/09/14 04:16:14;;;;;;;;;;;23.30;50.50;;;;;;5054344;28;20049;-71
2021/09/14 04:18:41;;;;;;;1.80;1.70;;;23.30;50.40;;;;;;5057086;28;20401;-70
2021/09/14 04:21:08;;;;;;;1.75;1.65;;;23.30;50.30;;;;;;5058351;28;20041;-71
2021/09/14 04:23:36;;;;;;;1.92;1.83;;;23.40;50.40;;;;;;5049022;28;20504;-69
2021/09/14 04:26:03;;;;;;;2.20;2.00;;;23.40;50.40;;;;;;5051730;28;20448;-71
2021/09/14 04:28:31;;;;;;;2.05;1.83;;;23.40;50.40;;;;;;5052597;28;20044;-71
2021/09/14 04:30:59;;;;;;;1.67;1.58;;;23.40;50.30;;;;;;5054748;28;20084;-71
2021/09/14 04:33:42;;;;;;;2.30;2.10;;;23.40;50.30;;;;;;5051244;28;20045;-69
2021/09/14 04:36:09;;;;;;;1.60;1.50;;;23.40;50.30;;;;;;5057780;28;20100;-71
2021/09/14 04:38:37;;;;;;;1.67;1.58;;;23.40;50.20;;;;;;5057395;28;20466;-71
2021/09/14 04:41:07;;;;;;;1.27;1.27;;;23.40;50.20;;;;;;5056378;28;20132;-71
2021/09/14 04:43:34;;;;;;;1.63;1.52;;;23.40;50.20;;;;;;5044781;28;20106;-69
2021/09/14 04:46:03;;;;;;;2.47;2.00;;;23.40;50.20;;;;;;5057601;28;20043;-71
2021/09/14 04:48:30;;;;;;;1.83;1.73;;;23.40;50.20;;;;;;5060547;28;20051;-71
2021/09/14 04:50:57;;;;;;;1.83;1.73;;;23.40;50.20;;;;;;5049831;28;20128;-68
2021/09/14 04:53:25;;;;;;;1.80;1.70;;;23.40;50.20;;;;;;5050111;28;20076;-69
2021/09/14 04:55:52;;;;;;;2.05;1.85;;;23.40;50.20;;;;;;5051723;28;20128;-71
2021/09/14 04:58:19;;;;;;;1.70;1.60;;;23.40;50.20;;;;;;5057913;28;20478;-71
2021/09/14 05:00:46;;;;;;;1.92;1.83;;;23.40;50.20;;;;;;5058209;28;20663;-69
2021/09/14 05:03:33;;;;;;;2.30;2.10;;;23.40;50.20;;;;;;5053499;28;20045;-70
2021/09/14 05:06:00;;;;;;;1.77;1.67;;;23.50;50.20;;;;;;5047897;28;20048;-70
2021/09/14 05:08:28;;;;;;;4.78;1.90;;;23.40;50.10;;;;;;5043865;28;20053;-69
2021/09/14 05:10:58;;;;;;;2.22;1.98;;;23.50;50.00;;;;;;5050734;28;20136;-71
2021/09/14 05:13:25;;;;;;;2.07;1.93;;;23.50;49.90;;;;;;5049379;28;20085;-70
2021/09/14 05:15:52;;;;;;;1.70;1.60;;;23.50;49.90;;;;;;5053194;28;20037;-70
2021/09/14 05:18:20;;;;;;;1.67;1.58;;;23.50;49.80;;;;;;5056432;28;20451;-69
2021/09/14 05:20:47;;;;;;;1.90;1.80;;;23.60;49.80;;;;;;5063864;28;20552;-70
2021/09/14 05:23:35;;;;;;;2.55;2.13;;;23.50;49.70;;;;;;5055570;28;20050;-68
2021/09/14 05:26:04;;;;;;;3.15;1.67;;;23.60;49.60;;;;;;5048062;28;20123;-70
2021/09/14 05:28:33;;;;;;;2.15;2.05;;;23.60;49.60;;;;;;5052288;28;20072;-70
2021/09/14 05:31:02;;;;;;;1.77;1.67;;;23.60;49.50;;;;;;5053258;28;20048;-70
2021/09/14 05:33:29;;;;;;;2.33;2.17;;;23.70;49.40;;;;;;5046252;28;20052;-68
2021/09/14 05:35:56;;;;;;;2.75;2.08;;;23.60;49.20;;;;;;5049087;28;20133;-71
2021/09/14 05:38:25;;;;;;;2.70;2.42;;;23.70;49.20;;;;;;5045430;28;20638;-69
2021/09/14 05:40:55;;;;;;;2.60;2.40;;;23.70;49.20;;;;;;5051071;28;20135;-67
2021/09/14 05:46:45;;;;;;;3.58;3.28;;;23.80;49.50;;;;;;5056585;28;20045;-67
2021/09/14 05:49:12;;;;;;;5.30;3.38;;;23.80;49.50;;;;;;5056729;28;20048;-65
2021/09/14 05:51:39;;;;;;;4.75;3.20;;;23.90;49.50;;;;;;5055700;28;20136;-70
2021/09/14 05:54:06;;;;;;;5.93;3.85;;;23.90;49.70;;;;;;5057660;28;20049;-69
2021/09/14 05:56:33;;;;;;;7.53;4.25;;;23.90;49.70;;;;;;5059460;28;20131;-69
2021/09/14 05:59:00;;;;;;;10.52;4.93;;;23.90;49.60;;;;;;5061398;28;20053;-68
2021/09/14 06:01:28;;;;;;;14.02;5.65;;;23.90;49.40;;;;;;5054991;28;20100;-68
2021/09/14 06:03:56;;;;;;;7.15;4.45;;;23.90;49.40;;;;;;5064690;28;20048;-68
2021/09/14 06:06:23;;;;;;;8.02;5.28;;;24.00;49.30;;;;;;5079996;28;20456;-69
2021/09/14 06:08:50;;;;;;;7.28;5.30;;;24.00;49.20;;;;;;5079651;28;20048;-67
2021/09/14 06:11:17;;;;;;;8.93;5.43;;;24.00;49.10;;;;;;5082328;28;20099;-66
2021/09/14 06:13:44;;;;;;;8.27;4.90;;;24.00;49.10;;;;;;5080009;28;20053;-68
2021/09/14 06:16:13;;;;;;;9.93;4.95;;;24.10;49.30;;;;;;5076511;28;20051;-66
2021/09/14 06:18:40;;;;;;;9.13;4.97;;;24.10;49.50;;;;;;5076127;28;20127;-67
2021/09/14 06:21:09;;;;;;;12.40;5.47;;;24.10;49.70;;;;;;5080297;28;20196;-70
2021/09/14 06:23:44;;;;;;;6.32;4.72;;;24.20;49.80;;;;;;5075741;28;20072;-71
2021/09/14 06:26:48;;;;;;;9.77;4.57;;;24.20;49.80;;;;;;5072896;28;20118;-73
2021/09/14 06:40:25;;;;;;;8.98;4.78;;;24.30;49.70;;;;;;5053450;28;20567;-72
2021/09/14 06:42:52;;;;;;;7.63;5.47;;;24.40;49.70;;;;;;5052496;28;20117;-72
2021/09/14 06:45:22;;;;;;;8.02;4.97;;;24.40;49.50;;;;;;5046768;28;20055;-72
2021/09/14 06:47:49;;;;;;;12.50;5.25;;;24.50;49.40;;;;;;5058411;28;20180;-71
2021/09/14 06:50:21;;;;;;;6.57;5.28;;;24.50;49.20;;;;;;5055464;28;20041;-68
2021/09/14 06:52:49;;;;;;;9.15;5.20;;;24.50;49.20;;;;;;5056805;28;20461;-72
2021/09/14 06:55:16;;;;;;;9.68;5.22;;;24.50;49.10;;;;;;5081122;28;20456;-71
2021/09/14 06:57:43;;;;;;;8.85;5.53;;;24.60;49.20;;;;;;5079165;28;20493;-71
2021/09/14 07:00:11;;;;;;;11.52;6.00;;;24.60;49.70;;;;;;5078590;28;20052;-69
2021/09/14 07:02:41;;;;;;;9.45;4.90;;;24.60;49.20;;;;;;5079134;28;20048;-77
2021/09/14 07:05:08;;;;;;;10.27;6.40;;;24.60;49.10;;;;;;5079482;28;20056;-72
2021/09/14 07:07:35;;;;;;;9.23;5.70;;;24.60;49.20;;;;;;5074337;28;20717;-76
2021/09/14 07:10:04;;;;;;;8.55;5.88;;;24.70;49.30;;;;;;5050536;28;20116;-77
2021/09/14 07:12:31;;;;;;;9.13;6.00;;;24.70;49.30;;;;;;5047281;28;20171;-85
2021/09/14 07:14:59;;;;;;;9.02;6.43;;;24.70;49.30;;;;;;5043858;28;20052;-81
2021/09/14 07:17:26;;;;;;;12.48;5.90;;;24.70;49.30;;;;;;5053073;28;20136;-74
2021/09/14 07:19:53;;;;;;;17.65;6.05;;;24.70;49.50;;;;;;5051117;28;20037;-70
2021/09/14 07:22:21;;;;;;;8.65;5.93;;;24.70;49.50;;;;;;5047908;28;20048;-73
2021/09/14 07:28:29;;;;;;;11.32;5.13;;;24.80;49.50;;;;;;5046536;28;20500;-75
2021/09/14 07:30:56;;;;;;;8.75;5.88;;;24.80;49.50;;;;;;5051670;28;20124;-72
2021/09/14 07:33:23;;;;;;;8.55;5.60;;;24.80;49.60;;;;;;5041481;28;20132;-74
2021/09/14 07:35:50;;;;;;;9.30;5.60;;;24.80;49.70;;;;;;5057505;28;20152;-75
2021/09/14 07:38:19;;;;;;;9.77;6.10;;;24.80;49.70;;;;;;5053946;28;20149;-75
2021/09/14 07:40:46;;;;;;;7.07;5.70;;;24.80;49.70;;;;;;5054828;28;21054;-76
2021/09/14 07:43:13;;;;;;;12.45;5.90;;;24.90;49.80;;;;;;5045403;28;20108;-75
2021/09/14 07:45:40;;;;;;;10.63;5.53;;;24.90;49.80;;;;;;5051709;28;20044;-74
2021/09/14 07:48:07;;;;;;;10.73;6.05;;;24.90;49.80;;;;;;5054673;28;20548;-80
2021/09/14 07:50:35;;;;;;;7.82;5.50;;;24.90;49.70;;;;;;5053847;28;20112;-74
2021/09/14 07:53:03;;;;;;;10.40;5.43;;;24.90;49.60;;;;;;5049051;28;20032;-77
2021/09/14 07:55:30;;;;;;;9.68;4.90;;;24.90;49.60;;;;;;5031126;28;20080;-78
2021/09/14 07:57:57;;;;;;;7.03;4.50;;;24.90;49.60;;;;;;5053285;28;20466;-71
2021/09/14 08:00:24;;;;;;;10.15;4.88;;;24.90;49.90;;;;;;5059109;28;20045;-76
2021/09/14 08:03:21;;;;;;;7.75;5.28;;;24.90;49.90;;;;;;5048948;28;20128;-74
2021/09/14 08:05:49;;;;;;;7.25;5.10;;;25.00;49.90;;;;;;5047940;28;20052;-72
2021/09/14 08:08:16;;;;;;;7.95;4.97;;;25.00;49.90;;;;;;5056713;28;20048;-74
2021/09/14 08:10:43;;;;;;;5.85;4.65;;;25.00;50.00;;;;;;5052428;28;20051;-74
2021/09/14 08:13:18;;;;;;;8.15;5.13;;;25.00;50.00;;;;;;5047255;28;20088;-74
2021/09/14 08:19:27;;;;;;;8.32;4.70;;;25.10;50.20;;;;;;5054052;28;20400;-66
2021/09/14 08:21:54;;;;;;;6.38;4.95;;;25.10;50.30;;;;;;5052214;28;20135;-73
2021/09/14 08:24:22;;;;;;;5.15;4.22;;;25.10;50.30;;;;;;5040327;28;20144;-66
2021/09/14 08:26:49;;;;;;;5.55;4.60;;;25.10;50.30;;;;;;5053032;28;20778;-64
2021/09/14 08:29:17;;;;;;;6.20;4.50;;;25.20;50.50;;;;;;5058936;28;20124;-65
2021/09/14 08:32:34;;;;;;;5.95;4.47;;;25.20;50.40;;;;;;5050808;28;20124;-65
2021/09/14 08:35:19;;;;;;;6.25;4.30;;;25.20;50.30;;;;;;5041447;28;20063;-69
2021/09/14 08:37:46;;;;;;;7.82;4.50;;;25.30;50.60;;;;;;5052581;28;20550;-74
2021/09/14 08:40:14;;;;;;;6.85;4.15;;;25.40;50.50;;;;;;5052181;28;20074;-70
2021/09/14 08:42:56;;;;;;;6.95;4.57;;;25.40;50.80;;;;;;5044564;28;20048;-72
2021/09/14 08:45:25;;;;;;;4.75;3.80;;;25.40;51.00;;;;;;5045445;28;20072;-72
2021/09/14 08:47:53;;;;;;;5.95;3.80;;;25.40;51.10;;;;;;5056318;28;20111;-73
2021/09/14 08:50:23;;;;;;;4.50;3.80;;;25.40;50.90;;;;;;5053507;28;20135;-70
2021/09/14 08:52:57;;;;;;;;;;;25.50;50.70;;;;;;5047080;28;20191;-74
2021/09/14 08:55:24;;;;;;;4.07;3.58;;;25.50;50.70;;;;;;5051190;28;19925;-71
2021/09/14 08:57:53;;;;;;;11.55;3.88;;;25.60;50.60;;;;;;5054227;28;20136;-75
2021/09/14 09:00:34;;;;;;;7.20;4.07;;;25.60;50.40;;;;;;5048463;28;20040;-68
2021/09/14 09:03:02;;;;;;;6.22;3.67;;;25.60;50.20;;;;;;5050430;28;20136;-68
2021/09/14 09:05:35;;;;;;;5.05;3.47;;;25.60;50.00;;;;;;5052394;28;20054;-67
2021/09/14 09:08:03;;;;;;;3.45;3.05;;;25.70;50.30;;;;;;5051993;28;20076;-69
2021/09/14 09:10:30;;;;;;;6.28;3.10;;;25.70;50.30;;;;;;5049617;28;20657;-65
2021/09/14 09:13:00;;;;;;;4.05;3.55;;;25.70;50.10;;;;;;5044401;28;20045;-71
2021/09/14 09:15:30;;;;;;;3.42;2.70;;;25.70;50.10;;;;;;5043953;28;20056;-66
2021/09/14 09:18:10;;;;;;;4.38;2.80;;;25.70;50.10;;;;;;5055834;28;20436;-72
2021/09/14 09:20:40;;;;;;;4.07;3.50;;;25.80;50.00;;;;;;5051282;28;20136;-73
2021/09/14 09:23:23;;;;;;;;;;;25.80;49.70;;;;;;5055555;28;20114;-71
2021/09/14 09:25:51;;;;;;;5.25;3.05;;;25.80;49.50;;;;;;5047219;28;20497;-68
2021/09/14 09:28:23;;;;;;;4.72;2.85;;;25.80;49.30;;;;;;5056617;28;20515;-71
2021/09/14 09:30:59;;;;;;;4.45;2.67;;;25.80;49.10;;;;;;5047952;28;20643;-71
2021/09/14 09:33:50;;;;;;;5.45;2.47;;;25.80;48.80;;;;;;5041643;28;20045;-78
2021/09/14 09:36:29;;;;;;;3.03;2.83;;;25.80;48.60;;;;;;5046363;28;20139;-74
2021/09/14 09:38:58;;;;;;;4.05;2.70;;;25.90;48.60;;;;;;5051482;28;20072;-71
2021/09/14 09:41:25;;;;;;;4.20;2.53;;;25.90;48.50;;;;;;5057660;28;20184;-67
2021/09/14 09:44:07;;;;;;;2.60;2.40;;;25.90;48.40;;;;;;5051088;28;20056;-68
2021/09/14 09:46:35;;;;;;;5.78;2.83;;;25.90;48.40;;;;;;5049812;28;20048;-71
2021/09/14 09:49:08;;;;;;;4.93;2.70;;;25.90;48.30;;;;;;5057199;28;20513;-73
2021/09/14 09:51:37;;;;;;;5.38;2.78;;;26.00;48.30;;;;;;5052006;28;20058;-74
2021/09/14 09:54:05;;;;;;;2.70;2.50;;;26.00;48.10;;;;;;5048698;28;20147;-67
2021/09/14 09:56:33;;;;;;;3.00;2.40;;;26.00;48.10;;;;;;5050430;28;20045;-68
2021/09/14 09:59:04;;;;;;;4.20;2.60;;;26.00;48.40;;;;;;5054933;28;20065;-73
2021/09/14 10:01:35;;;;;;;2.03;1.80;;;26.10;48.50;;;;;;5052738;28;20832;-77
2021/09/14 10:04:20;;;;;;;3.33;2.65;;;26.20;48.60;;;;;;5049208;28;20040;-77
2021/09/14 10:06:51;;;;;;;4.70;3.00;;;26.20;48.40;;;;;;5058446;28;20917;-76
2021/09/14 10:09:20;;;;;;;4.90;2.67;;;26.30;48.30;;;;;;5056323;28;20037;-75
2021/09/14 10:11:55;;;;;;;3.65;2.50;;;26.30;48.30;;;;;;5046841;28;20549;-75
2021/09/14 10:14:23;;;;;;;4.05;3.08;;;26.40;48.00;;;;;;5045278;28;20058;-71
2021/09/14 10:16:51;;;;;;;4.05;2.70;;;26.40;47.30;;;;;;5049511;28;20067;-73
2021/09/14 10:19:28;;;;;;;4.72;3.10;;;26.40;46.90;;;;;;5048413;28;20053;-72
2021/09/14 10:22:03;;;;;;;3.25;2.67;;;26.40;46.70;;;;;;5047792;28;20132;-72
2021/09/14 10:24:32;;;;;;;7.82;3.03;;;26.40;46.50;;;;;;5045921;28;20619;-71
2021/09/14 10:27:05;;;;;;;3.30;3.00;;;26.40;46.10;;;;;;5050258;28;20057;-70
2021/09/14 10:29:34;;;;;;;3.20;2.88;;;26.40;46.00;;;;;;5051863;28;20386;-73
2021/09/14 10:32:27;;;;;;;8.00;3.45;;;26.40;45.60;;;;;;5051450;28;20124;-73
2021/09/14 10:35:00;;;;;;;4.18;3.17;;;26.40;45.50;;;;;;5043588;28;20040;-68
2021/09/14 10:37:31;;;;;;;9.02;3.13;;;26.40;45.20;;;;;;5051205;28;20591;-70
2021/09/14 10:40:14;;;;;;;5.93;3.05;;;26.40;45.40;;;;;;5051759;28;20577;-69
2021/09/14 10:43:06;;;;;;;4.50;3.20;;;26.40;45.40;;;;;;5050233;28;20046;-68
2021/09/14 10:45:42;;;;;;;5.50;2.88;;;26.40;45.20;;;;;;5046104;28;20075;-68
2021/09/14 10:48:28;;;;;;;3.35;2.85;;;26.40;45.20;;;;;;5057779;28;20470;-72
2021/09/14 10:51:08;;;;;;;3.65;2.75;;;26.50;45.40;;;;;;5051117;28;20121;-73
2021/09/14 10:53:36;;;;;;;3.35;3.05;;;26.50;45.00;;;;;;5043041;28;20060;-69
2021/09/14 10:56:04;;;;;;;2.75;2.60;;;26.50;44.70;;;;;;5047357;28;20131;-71
2021/09/14 10:58:44;;;;;;;2.85;2.65;;;26.50;44.40;;;;;;5047382;28;20059;-70
2021/09/14 11:01:12;;;;;;;6.43;2.83;;;26.50;44.30;;;;;;5048853;28;20056;-70
2021/09/14 11:03:40;;;;;;;3.53;3.10;;;26.60;44.50;;;;;;5044509;28;20167;-73
2021/09/14 11:06:08;;;;;;;4.68;2.90;;;26.60;44.70;;;;;;5059405;28;20080;-73
2021/09/14 11:08:35;;;;;;;3.05;2.58;;;26.60;45.30;;;;;;5049315;28;20653;-74
2021/09/14 11:11:03;;;;;;;4.72;3.13;;;26.70;45.60;;;;;;5056069;28;20140;-73
2021/09/14 11:14:10;;;;;;;4.38;3.58;;;26.70;45.60;;;;;;5052976;28;20064;-72
2021/09/14 11:16:37;;;;;;;3.35;3.05;;;26.80;45.20;;;;;;5055116;28;20051;-72
2021/09/14 11:19:04;;;;;;;3.53;2.63;;;26.80;45.40;;;;;;5058073;28;20137;-73
2021/09/14 11:21:31;;;;;;;3.88;2.83;;;26.90;45.30;;;;;;5058063;28;20106;-67
2021/09/14 11:23:58;;;;;;;3.08;2.75;;;26.90;45.30;;;;;;5046463;28;20411;-71
2021/09/14 11:26:26;;;;;;;10.45;3.90;;;27.00;44.80;;;;;;5052069;28;20140;-73
2021/09/14 11:28:59;;;;;;;11.00;3.10;;;27.00;44.60;;;;;;5055633;28;20045;-68
2021/09/14 11:31:30;;;;;;;5.15;3.70;;;27.00;44.60;;;;;;5052248;28;20072;-68
2021/09/14 11:33:59;;;;;;;12.88;3.28;;;27.00;44.70;;;;;;5045871;28;20045;-71
2021/09/14 11:36:27;;;;;;;3.28;2.97;;;27.00;44.80;;;;;;5054276;28;20044;-73
2021/09/14 11:39:00;;;;;;;4.43;3.10;;;27.00;44.60;;;;;;5061717;28;20130;-66
2021/09/14 11:41:36;;;;;;;11.25;3.17;;;27.00;44.60;;;;;;5057416;28;20036;-70
2021/09/14 11:44:06;;;;;;;4.10;3.10;;;27.00;44.60;;;;;;5050639;28;20048;-71
2021/09/14 11:46:48;;;;;;;3.90;3.00;;;27.00;44.40;;;;;;5048358;28;20074;-70
2021/09/14 11:49:15;;;;;;;7.70;3.47;;;27.10;44.20;;;;;;5054509;28;20052;-71
2021/09/14 11:51:42;;;;;;;4.95;3.03;;;27.10;44.20;;;;;;5053446;28;20044;-70
2021/09/14 11:54:12;;;;;;;4.15;3.08;;;27.10;43.40;;;;;;5040903;28;20135;-71
2021/09/14 12:00:45;;;;;;;6.13;3.28;;;27.20;43.20;;;;;;5052932;28;20716;-71
2021/09/14 12:03:21;;;;;;;4.07;3.17;;;27.20;42.90;;;;;;5048380;28;20052;-71
2021/09/14 12:06:29;;;;;;;3.35;3.05;;;27.30;43.00;;;;;;5048480;28;20450;-72
2021/09/14 12:09:01;;;;;;;4.60;3.22;;;27.30;43.00;;;;;;5059195;28;20047;-71
2021/09/14 12:12:01;;;;;;;7.22;3.15;;;27.30;43.40;;;;;;5051845;28;20135;-75
2021/09/14 12:14:29;;;;;;;3.65;3.35;;;27.40;43.50;;;;;;5053451;28;20051;-74
2021/09/14 12:16:59;;;;;;;3.05;2.85;;;27.50;44.10;;;;;;5062148;28;20131;-70
2021/09/14 12:19:26;;;;;;;6.32;3.03;;;27.50;43.80;;;;;;5060435;28;20124;-72
2021/09/14 12:21:53;;;;;;;5.20;2.92;;;27.60;43.50;;;;;;5050954;28;20076;-73
2021/09/14 12:24:52;;;;;;;3.30;3.00;;;27.60;43.00;;;;;;5046984;28;20136;-73
2021/09/14 12:27:19;;;;;;;3.67;2.58;;;27.60;43.00;;;;;;5054151;28;20048;-73
2021/09/14 12:29:47;;;;;;;5.75;2.80;;;27.50;43.10;;;;;;5058926;28;20123;-75
2021/09/14 12:32:46;;;;;;;4.55;3.13;;;27.50;42.90;;;;;;5053072;28;20133;-76
2021/09/14 12:35:18;;;;;;;3.28;2.97;;;27.50;42.80;;;;;;5053778;28;20044;-75
2021/09/14 12:37:45;;;;;;;7.55;3.20;;;27.50;42.80;;;;;;5064850;28;20110;-76
2021/09/14 12:40:13;;;;;;;3.80;3.20;;;27.50;42.70;;;;;;5058880;28;20718;-74
2021/09/14 12:42:40;;;;;;;3.70;3.38;;;27.50;42.50;;;;;;5032496;28;20797;-74
2021/09/14 12:45:08;;;;;;;8.05;3.45;;;27.50;42.50;;;;;;5045162;28;20119;-77
2021/09/14 12:47:36;;;;;;;3.97;3.22;;;27.60;42.30;;;;;;5053116;28;20080;-78
2021/09/14 12:50:03;;;;;;;4.43;2.72;;;27.60;42.20;;;;;;5053915;28;20075;-74
2021/09/14 12:52:30;;;;;;;3.28;2.97;;;27.60;42.20;;;;;;5045806;28;20037;-75
2021/09/14 12:55:08;;;;;;;3.00;2.80;;;27.60;42.30;;;;;;5054215;28;20048;-73
2021/09/14 12:57:36;;;;;;;3.85;3.05;;;27.60;42.50;;;;;;5048964;28;20044;-73
2021/09/14 13:00:05;;;;;;;5.45;3.00;;;27.60;42.60;;;;;;5050467;28;20103;-73
2021/09/14 13:02:46;;;;;;;3.63;3.28;;;27.60;42.50;;;;;;5045525;28;20140;-74
2021/09/14 13:05:14;;;;;;;3.63;2.80;;;27.60;42.40;;;;;;5041832;28;20044;-72
2021/09/14 13:07:42;;;;;;;2.90;2.60;;;27.50;42.40;;;;;;5047309;28;20045;-74
2021/09/14 13:10:27;;;;;;;2.97;2.78;;;27.60;42.80;;;;;;5054290;28;20048;-74
2021/09/14 13:16:20;;;;;;;4.30;3.10;;;27.70;42.60;;;;;;5056228;28;20127;-77
2021/09/14 13:18:51;;;;;;;6.93;3.30;;;27.70;41.40;;;;;;5059476;28;20458;-80
2021/09/14 13:21:20;;;;;;;3.95;2.60;;;27.70;41.00;;;;;;5059140;28;20049;-71
2021/09/14 13:23:48;;;;;;;4.32;2.72;;;27.70;41.10;;;;;;5058016;28;20087;-79
2021/09/14 13:26:17;;;;;;;4.40;3.15;;;27.80;41.60;;;;;;5059307;28;20085;-73
2021/09/14 13:28:45;;;;;;;3.27;2.63;;;27.80;41.60;;;;;;5057469;28;20056;-81
2021/09/14 13:31:12;;;;;;;3.33;3.03;;;27.80;41.80;;;;;;5060519;28;20098;-74
2021/09/14 13:33:39;;;;;;;3.22;2.97;;;27.80;41.80;;;;;;5059603;28;20444;-75
2021/09/14 13:36:07;;;;;;;3.60;3.28;;;27.90;42.00;;;;;;5059492;28;20076;-74
2021/09/14 13:38:34;;;;;;;3.58;3.13;;;27.90;42.00;;;;;;5058347;28;20088;-76
2021/09/14 13:41:13;;;;;;;3.42;3.08;;;27.90;41.50;;;;;;5057284;28;20053;-75
2021/09/14 13:43:52;;;;;;;5.45;3.55;;;28.00;41.30;;;;;;5055470;28;20059;-74
2021/09/14 13:46:19;;;;;;;5.70;3.10;;;28.00;41.60;;;;;;5050604;28;20044;-76
2021/09/14 13:48:54;;;;;;;3.85;2.80;;;28.00;41.80;;;;;;5052507;28;20053;-73
2021/09/14 13:51:26;;;;;;;3.75;3.05;;;28.00;41.50;;;;;;5055646;28;20156;-74
2021/09/14 13:53:54;;;;;;;4.75;3.58;;;28.10;41.70;;;;;;5040281;28;20068;-73
2021/09/14 13:56:24;;;;;;;4.50;2.95;;;28.00;42.10;;;;;;5054575;28;20076;-73
2021/09/14 13:58:53;;;;;;;4.85;3.38;;;28.10;42.50;;;;;;5057071;28;20691;-72
2021/09/14 14:01:21;;;;;;;5.85;2.83;;;28.10;42.70;;;;;;5064156;28;20056;-73
2021/09/14 14:03:50;;;;;;;13.68;3.55;;;28.10;42.60;;;;;;5046124;28;20141;-75
2021/09/14 14:06:17;;;;;;;4.38;3.20;;;28.10;42.50;;;;;;5050913;28;20044;-74
2021/09/14 14:08:45;;;;;;;3.78;3.30;;;28.10;41.80;;;;;;5058165;28;20064;-77
2021/09/14 14:11:13;;;;;;;4.28;3.88;;;28.00;41.60;;;;;;5048829;28;20048;-67
2021/09/14 14:13:40;;;;;;;3.33;3.03;;;28.00;41.50;;;;;;5050475;28;20100;-63
2021/09/14 14:16:08;;;;;;;4.43;3.03;;;28.00;41.60;;;;;;5058626;28;20079;-68
2021/09/14 14:18:37;;;;;;;6.55;3.47;;;27.90;41.70;;;;;;5058799;28;20508;-68
2021/09/14 14:21:06;;;;;;;4.45;2.92;;;27.90;41.90;;;;;;5056842;28;20151;-64